Time;durP1;ratioP1;P1;durP2;ratioP2;P2;SDS_P1;SDS_P2;PMS_P1;PMS_P2;Temp;Humidity;BMP_temperature;BMP_pressure;BME280_temperature;BME280_humidity;BME280_pressure;Samples;Min_cycle;Max_cycle;Signal;HPM_P1;HPM_P2
2023/10/28 00:01:55;;;;;;;;;4.00;1.00;;;;;12.15;85.36;98992.03;5077850;27;45220;-83
2023/10/28 00:04:23;;;;;;;;;2.00;2.00;;;;;11.95;85.22;98942.31;5077284;27;45381;-86
2023/10/28 00:06:48;;;;;;;;;2.00;2.00;;;;;12.27;84.93;99000.78;5077717;27;45554;-83
2023/10/28 00:09:15;;;;;;;;;1.67;1.33;;;;;12.04;84.47;98966.31;5076329;28;68826;-84
2023/10/28 00:11:40;;;;;;;;;2.33;2.00;;;;;11.88;84.35;98942.00;5076820;28;45457;-83
2023/10/28 00:14:05;;;;;;;;;5.33;2.00;;;;;12.31;84.48;98996.84;5078595;27;45369;-87
2023/10/28 00:16:31;;;;;;;;;3.00;1.00;;;;;12.02;84.00;98952.31;5080360;27;45407;-85
2023/10/28 00:18:56;;;;;;;;;3.00;1.33;;;;;12.22;84.03;98966.50;5079906;27;45500;-89
2023/10/28 00:21:22;;;;;;;;;2.67;2.00;;;;;12.04;84.13;98942.34;5080149;28;45393;-88
2023/10/28 00:23:47;;;;;;;;;0.00;0.00;;;;;12.29;83.99;98983.66;5085031;27;45238;-87
2023/10/28 00:26:12;;;;;;;;;3.67;1.33;;;;;12.33;83.88;99001.06;5083837;27;45207;-87
2023/10/28 00:28:39;;;;;;;;;2.67;1.67;;;;;12.25;83.58;98970.75;5080844;28;48584;-83
2023/10/28 00:31:05;;;;;;;;;1.00;1.00;;;;;11.84;83.82;98902.44;5080838;28;45247;-82
2023/10/28 00:33:31;;;;;;;;;0.00;0.00;;;;;12.33;83.80;98985.06;5081141;27;45300;-82
2023/10/28 00:35:56;;;;;;;;;1.67;1.00;;;;;12.25;84.14;98963.59;5081255;28;45315;-84
2023/10/28 00:38:22;;;;;;;;;1.00;1.00;;;;;11.99;83.90;98923.28;5081505;27;45516;-82
2023/10/28 00:40:48;;;;;;;;;5.00;2.00;;;;;12.22;84.36;98969.19;5082296;27;45314;-83
2023/10/28 00:43:14;;;;;;;;;4.00;2.33;;;;;12.32;84.69;98974.53;5083809;28;45344;-83
2023/10/28 00:45:40;;;;;;;;;2.67;2.00;;;;;11.85;85.25;98904.13;5065259;28;46302;-82
2023/10/28 00:48:06;;;;;;;;;3.33;3.00;;;;;12.28;85.34;98967.81;5083674;27;45523;-81
2023/10/28 00:50:32;;;;;;;;;1.67;1.67;;;;;12.09;85.72;98947.25;5087984;28;45194;-82
2023/10/28 00:53:00;;;;;;;;;6.33;2.00;;;;;12.23;85.50;98967.34;5086463;27;45242;-83
2023/10/28 00:55:29;;;;;;;;;3.67;2.00;;;;;12.25;85.07;98974.25;5080715;28;47894;-84
2023/10/28 00:57:55;;;;;;;;;1.00;1.00;;;;;12.20;85.66;98952.47;5082477;27;45373;-82
2023/10/28 01:00:21;;;;;;;;;3.67;3.00;;;;;12.14;85.75;98946.88;5087106;27;45259;-82
2023/10/28 01:02:46;;;;;;;;;2.00;1.33;;;;;12.17;85.20;98952.75;5084186;27;45273;-84
2023/10/28 01:05:13;;;;;;;;;2.33;1.67;;;;;12.05;85.33;98922.72;5083288;28;45907;-86
2023/10/28 01:07:44;;;;;;;;;1.33;1.00;;;;;11.59;85.04;98866.44;5082683;27;45348;-87
2023/10/28 01:10:09;;;;;;;;;1.33;1.00;;;;;12.16;85.90;98958.22;5081592;27;45430;-85
2023/10/28 01:12:35;;;;;;;;;4.33;1.00;;;;;12.18;85.65;98964.25;5082393;27;45655;-86
2023/10/28 01:15:02;;;;;;;;;1.67;1.67;;;;;12.16;86.07;98961.75;5082642;27;45418;-84
2023/10/28 01:17:27;;;;;;;;;2.33;1.00;;;;;11.95;85.69;98921.00;5083157;27;45461;-88
2023/10/28 01:19:53;;;;;;;;;1.67;1.00;;;;;11.67;85.84;98877.28;5088378;28;45454;-85
2023/10/28 01:22:21;;;;;;;;;1.33;1.00;;;;;11.74;85.98;98879.28;5085902;27;45345;-87
2023/10/28 01:24:47;;;;;;;;;2.33;1.67;;;;;11.93;86.15;98920.28;5087879;28;45512;-85
2023/10/28 01:27:13;;;;;;;;;2.00;2.00;;;;;11.66;86.52;98863.13;5087255;27;45393;-84
2023/10/28 01:29:38;;;;;;;;;2.67;2.67;;;;;12.23;86.12;98944.22;5085860;28;45384;-86
2023/10/28 01:32:04;;;;;;;;;2.67;1.00;;;;;12.15;86.70;98928.06;5084695;27;45354;-87
2023/10/28 01:34:30;;;;;;;;;4.00;0.00;;;;;12.05;87.06;98916.53;5084106;27;45358;-89
2023/10/28 01:36:55;;;;;;;;;1.00;1.00;;;;;12.09;86.75;98921.44;5084187;27;45613;-87
2023/10/28 01:39:21;;;;;;;;;4.67;2.00;;;;;12.08;86.62;98918.94;5082225;28;44749;-87
2023/10/28 01:41:46;;;;;;;;;1.00;1.00;;;;;12.19;86.68;98942.81;5083282;27;45262;-85
2023/10/28 01:44:12;;;;;;;;;1.00;1.00;;;;;12.07;88.17;98920.75;5081513;28;45356;-86
2023/10/28 01:46:37;;;;;;;;;1.33;1.33;;;;;11.82;87.68;98882.13;5081864;27;45279;-83
2023/10/28 01:49:03;;;;;;;;;1.00;1.00;;;;;12.06;87.66;98919.06;5082099;28;45257;-92
2023/10/28 01:51:28;;;;;;;;;5.00;1.00;;;;;12.14;87.75;98944.19;5083820;27;45215;-88
2023/10/28 01:53:55;;;;;;;;;2.00;1.00;;;;;12.14;88.07;98949.53;5085292;28;46353;-88
2023/10/28 01:56:21;;;;;;;;;3.67;1.00;;;;;11.57;88.13;98853.25;5083298;28;45376;-86
2023/10/28 01:58:47;;;;;;;;;3.00;1.33;;;;;12.03;87.62;98918.50;5083456;27;45354;-87
2023/10/28 02:01:12;;;;;;;;;1.00;1.00;;;;;12.12;88.13;98944.34;5082395;27;45583;-86
2023/10/28 02:03:37;;;;;;;;;2.00;1.00;;;;;11.91;88.52;98906.25;5080166;27;46481;-82
2023/10/28 02:06:06;;;;;;;;;1.00;1.00;;;;;12.14;88.53;98937.06;5081359;27;45259;-84
2023/10/28 02:08:31;;;;;;;;;1.67;1.67;;;;;12.06;88.68;98915.56;5080573;28;45292;-82
2023/10/28 02:10:56;;;;;;;;;3.00;3.00;;;;;12.17;87.62;98923.44;5084162;28;45575;-82
2023/10/28 02:13:22;;;;;;;;;3.00;1.00;;;;;12.06;87.76;98904.91;5083870;27;46518;-82
2023/10/28 02:15:50;;;;;;;;;0.00;0.00;;;;;11.91;87.67;98874.31;5084247;27;45235;-81
2023/10/28 02:18:18;;;;;;;;;0.67;0.67;;;;;11.82;88.07;98875.94;5090528;27;45164;-84
2023/10/28 02:20:44;;;;;;;;;2.00;2.00;;;;;12.06;87.45;98904.91;5083405;28;45331;-82
2023/10/28 02:23:10;;;;;;;;;2.00;0.33;;;;;12.16;87.23;98918.25;5083152;27;45519;-88
2023/10/28 02:25:36;;;;;;;;;1.00;1.00;;;;;11.72;87.30;98854.59;5082252;28;45343;-85
2023/10/28 02:28:01;;;;;;;;;3.00;2.00;;;;;12.17;87.60;98914.63;5081440;27;45505;-83
2023/10/28 02:30:26;;;;;;;;;2.67;2.00;;;;;12.16;87.61;98913.78;5083852;28;46227;-83
2023/10/28 02:32:54;;;;;;;;;3.00;1.67;;;;;11.98;87.43;98886.06;5085765;28;54330;-81
2023/10/28 02:35:20;;;;;;;;;2.33;2.00;;;;;11.96;87.76;98874.72;5097587;27;45299;-88
2023/10/28 02:37:46;;;;;;;;;2.00;0.67;;;;;12.02;87.79;98896.34;5082770;27;45352;-83
2023/10/28 02:40:11;;;;;;;;;1.00;1.00;;;;;11.89;87.65;98868.28;5095659;27;45465;-82
2023/10/28 02:42:37;;;;;;;;;0.67;0.67;;;;;12.05;87.71;98895.22;5088590;27;46035;-89
2023/10/28 02:45:04;;;;;;;;;1.00;1.00;;;;;12.17;87.67;98896.78;5083672;27;45507;-91
2023/10/28 02:47:33;;;;;;;;;1.67;1.00;;;;;12.08;87.76;98884.28;5081522;27;45348;-87
2023/10/28 02:49:59;;;;;;;;;1.00;1.00;;;;;12.04;87.72;98873.06;5081166;27;45382;-86
2023/10/28 02:52:25;;;;;;;;;1.33;1.33;;;;;12.10;87.18;98880.50;5080947;27;46024;-86
2023/10/28 02:54:50;;;;;;;;;0.00;0.00;;;;;11.97;87.62;98863.91;5081227;27;45298;-85
2023/10/28 02:57:15;;;;;;;;;3.00;1.00;;;;;12.05;87.58;98865.91;5081607;27;45215;-89
2023/10/28 02:59:41;;;;;;;;;3.67;0.33;;;;;11.89;87.86;98846.97;5084349;27;45179;-85
2023/10/28 03:02:06;;;;;;;;;3.00;1.00;;;;;12.12;87.61;98885.72;5089165;27;46855;-85
2023/10/28 03:04:32;;;;;;;;;0.00;0.00;;;;;12.13;87.68;98882.06;5090126;27;45222;-87
2023/10/28 03:06:57;;;;;;;;;2.00;1.00;;;;;11.90;87.89;98860.13;5090765;27;45293;-88
2023/10/28 03:09:23;;;;;;;;;3.00;0.00;;;;;12.04;87.73;98890.88;5090423;27;45333;-87
2023/10/28 03:11:48;;;;;;;;;0.67;0.67;;;;;12.00;88.01;98898.31;5083561;27;45941;-87
2023/10/28 03:14:14;;;;;;;;;2.00;0.00;;;;;11.70;87.73;98851.19;5086898;27;45385;-86
2023/10/28 03:16:39;;;;;;;;;1.67;1.67;;;;;11.96;87.90;98904.03;5085006;27;46197;-84
2023/10/28 03:19:04;;;;;;;;;2.33;1.00;;;;;11.56;87.76;98850.75;5081543;28;44823;-85
2023/10/28 03:21:30;;;;;;;;;0.67;0.00;;;;;11.94;87.99;98913.97;5081116;27;45377;-82
2023/10/28 03:23:55;;;;;;;;;1.00;1.00;;;;;11.97;87.95;98921.69;5094342;27;45017;-82
2023/10/28 03:26:21;;;;;;;;;1.00;1.00;;;;;11.84;87.70;98881.13;5077339;28;45405;-85
2023/10/28 03:28:49;;;;;;;;;0.00;0.00;;;;;11.77;87.68;98892.31;5078674;27;45345;-83
2023/10/28 03:31:15;;;;;;;;;1.00;1.00;;;;;12.02;87.32;98925.66;5078448;27;46394;-84
2023/10/28 03:33:40;;;;;;;;;1.33;0.67;;;;;11.81;87.32;98895.56;5078614;28;45176;-83
2023/10/28 03:36:08;;;;;;;;;3.00;2.00;;;;;11.68;87.65;98878.94;5079539;27;45163;-85
2023/10/28 03:38:34;;;;;;;;;2.00;1.00;;;;;11.96;87.48;98917.34;5078880;27;45292;-84
2023/10/28 03:40:59;;;;;;;;;0.67;0.67;;;;;11.93;87.38;98914.97;5078331;27;45522;-83
2023/10/28 03:43:25;;;;;;;;;0.00;0.00;;;;;11.70;87.25;98875.16;5077973;27;45396;-83
2023/10/28 03:45:50;;;;;;;;;1.00;1.00;;;;;11.90;87.01;98913.41;5078195;28;45375;-83
2023/10/28 03:48:15;;;;;;;;;2.00;0.00;;;;;11.92;87.24;98921.28;5079384;27;45341;-82
2023/10/28 03:50:41;;;;;;;;;0.67;0.33;;;;;11.83;87.03;98906.94;5079873;27;45365;-84
2023/10/28 03:53:06;;;;;;;;;0.33;0.00;;;;;11.95;87.03;98913.00;5080359;27;45591;-87
2023/10/28 03:55:32;;;;;;;;;2.00;1.00;;;;;11.95;86.64;98931.66;5083128;27;45342;-83
2023/10/28 03:57:59;;;;;;;;;4.00;1.00;;;;;12.04;86.47;98936.16;5081505;27;45306;-85
2023/10/28 04:00:26;;;;;;;;;3.00;1.00;;;;;12.00;86.50;98932.94;5081415;28;46516;-83
2023/10/28 04:02:51;;;;;;;;;0.67;0.00;;;;;12.07;86.28;98949.22;5081459;28;45401;-83
2023/10/28 04:05:18;;;;;;;;;4.00;0.67;;;;;12.04;85.90;98934.34;5080166;27;45223;-81
2023/10/28 04:07:43;;;;;;;;;2.00;1.00;;;;;12.00;85.33;98935.59;5080460;27;45498;-83
2023/10/28 04:10:08;;;;;;;;;3.00;1.00;;;;;11.85;85.87;98917.44;5078611;27;46121;-82
2023/10/28 04:12:35;;;;;;;;;1.00;0.00;;;;;11.80;85.65;98900.06;5080322;27;45449;-83
2023/10/28 04:15:00;;;;;;;;;1.00;0.67;;;;;11.46;85.77;98856.03;5080976;27;45354;-87
2023/10/28 04:17:31;;;;;;;;;1.00;1.00;;;;;11.79;85.86;98916.19;5081378;27;45482;-87
2023/10/28 04:19:57;;;;;;;;;2.00;1.00;;;;;11.74;86.15;98913.06;5078436;28;47044;-83
2023/10/28 04:22:25;;;;;;;;;2.33;1.00;;;;;12.05;86.13;98953.84;5079409;28;45443;-82
2023/10/28 04:24:50;;;;;;;;;2.67;0.33;;;;;11.52;85.74;98876.78;5079522;28;45349;-83
2023/10/28 04:27:15;;;;;;;;;1.00;0.00;;;;;11.52;85.75;98876.78;5080343;27;45325;-82
2023/10/28 04:29:41;;;;;;;;;3.33;1.00;;;;;11.63;85.91;98898.00;5079573;27;45536;-83
2023/10/28 04:32:07;;;;;;;;;2.00;1.00;;;;;12.09;85.60;98960.59;5080887;27;50932;-85
2023/10/28 04:34:32;;;;;;;;;1.33;1.33;;;;;12.12;85.51;98963.00;5081083;27;45197;-85
2023/10/28 04:36:57;;;;;;;;;0.33;0.33;;;;;11.70;85.40;98896.47;5079973;27;45296;-81
2023/10/28 04:39:23;;;;;;;;;3.67;1.00;;;;;12.14;85.41;98968.19;5078212;28;58646;-84
2023/10/28 04:41:49;;;;;;;;;1.00;1.00;;;;;12.04;85.52;98957.50;5078796;27;45343;-82
2023/10/28 04:44:14;;;;;;;;;0.33;0.33;;;;;12.10;85.22;98962.25;5081661;27;45344;-81
2023/10/28 04:46:40;;;;;;;;;1.00;1.00;;;;;12.06;85.46;98956.38;5083707;27;44802;-82
2023/10/28 04:49:05;;;;;;;;;1.00;1.00;;;;;12.17;85.55;98975.91;5077269;28;45668;-84
2023/10/28 04:51:31;;;;;;;;;2.33;1.33;;;;;12.18;85.54;98973.09;5076823;28;45418;-84
2023/10/28 04:53:56;;;;;;;;;3.00;0.00;;;;;12.10;85.47;98952.44;5078234;28;45446;-90
2023/10/28 04:56:21;;;;;;;;;0.67;0.33;;;;;11.95;85.39;98931.66;5077686;28;45356;-89
2023/10/28 04:58:47;;;;;;;;;1.67;0.33;;;;;12.18;84.98;98965.09;5077803;28;47151;-86
2023/10/28 05:01:12;;;;;;;;;1.00;0.33;;;;;12.07;85.25;98952.72;5079364;27;45317;-88
2023/10/28 05:03:37;;;;;;;;;1.00;1.00;;;;;11.90;85.64;98928.56;5079364;27;45537;-88
2023/10/28 05:06:04;;;;;;;;;2.00;0.67;;;;;12.14;85.70;98960.19;5080411;27;45377;-86
2023/10/28 05:08:29;;;;;;;;;0.00;0.00;;;;;11.97;85.79;98937.69;5080147;27;45384;-88
2023/10/28 05:10:54;;;;;;;;;1.67;1.00;;;;;12.13;85.67;98958.50;5081991;27;45319;-85
2023/10/28 05:13:20;;;;;;;;;3.33;1.67;;;;;12.06;85.51;98951.03;5084022;27;44723;-86
2023/10/28 05:15:45;;;;;;;;;1.00;1.00;;;;;12.10;86.48;98964.94;5083075;27;45309;-90
2023/10/28 05:18:11;;;;;;;;;2.00;2.00;;;;;12.00;85.64;98938.28;5087130;27;45405;-88
2023/10/28 05:20:36;;;;;;;;;10.33;2.00;;;;;12.17;85.59;98958.09;5089581;27;44779;-89
2023/10/28 05:23:02;;;;;;;;;3.00;1.00;;;;;12.05;85.62;98943.19;5096045;28;53412;-83
2023/10/28 05:25:27;;;;;;;;;0.33;0.33;;;;;12.15;85.54;98970.72;5101175;28;45667;-89
2023/10/28 05:27:52;;;;;;;;;5.00;2.00;;;;;11.95;85.18;98926.31;5096305;27;45741;-87
2023/10/28 05:30:18;;;;;;;;;1.00;1.00;;;;;12.24;84.93;98966.38;5091478;27;45351;-88
2023/10/28 05:32:43;;;;;;;;;1.33;0.67;;;;;12.15;84.97;98956.53;5088972;28;45144;-90
2023/10/28 05:35:10;;;;;;;;;1.33;1.33;;;;;12.14;85.00;98949.53;5084961;27;45192;-88
2023/10/28 05:37:36;;;;;;;;;1.00;1.00;;;;;12.05;84.81;98945.84;5093555;27;46209;-85
2023/10/28 05:40:02;;;;;;;;;5.00;1.33;;;;;11.80;84.97;98910.72;5089438;27;45217;-88
2023/10/28 05:42:27;;;;;;;;;0.00;0.00;;;;;11.67;84.83;98880.78;5083770;27;45225;-85
2023/10/28 05:44:52;;;;;;;;;3.33;2.00;;;;;12.22;85.02;98977.19;5083375;27;45382;-88
2023/10/28 05:47:18;;;;;;;;;1.00;1.00;;;;;11.73;85.04;98909.53;5082858;27;45513;-83
2023/10/28 05:49:43;;;;;;;;;2.67;1.00;;;;;12.13;84.96;98969.16;5083714;27;45250;-88
2023/10/28 05:52:09;;;;;;;;;1.00;0.00;;;;;12.18;85.15;98982.91;5082034;28;45403;-89
2023/10/28 05:54:35;;;;;;;;;1.00;1.00;;;;;12.15;85.14;98981.38;5083052;27;45566;-86
2023/10/28 05:57:00;;;;;;;;;1.00;1.00;;;;;12.00;85.04;98966.75;5100213;27;46839;-84
2023/10/28 05:59:26;;;;;;;;;1.67;1.67;;;;;11.79;85.53;98940.16;5083493;28;52481;-83
2023/10/28 06:01:51;;;;;;;;;2.00;2.00;;;;;12.03;84.86;98966.47;5079506;27;45694;-85
2023/10/28 06:04:17;;;;;;;;;3.33;1.00;;;;;12.17;85.28;98991.91;5079711;27;45452;-82
2023/10/28 06:06:42;;;;;;;;;1.00;1.00;;;;;11.87;85.13;98942.16;5078827;27;45450;-82
2023/10/28 06:09:10;;;;;;;;;3.33;0.33;;;;;11.86;84.99;98935.97;5079578;27;45357;-83
2023/10/28 06:11:36;;;;;;;;;2.00;2.00;;;;;12.00;84.77;98964.91;5079310;27;45239;-83
2023/10/28 06:14:03;;;;;;;;;2.00;0.33;;;;;12.05;85.34;98964.50;5078086;28;45276;-83
2023/10/28 06:16:28;;;;;;;;;2.00;1.00;;;;;12.20;84.90;98989.78;5083681;27;45414;-89
2023/10/28 06:18:54;;;;;;;;;2.00;0.00;;;;;12.22;84.98;99001.16;5087537;27;45263;-82
2023/10/28 06:21:19;;;;;;;;;2.00;2.00;;;;;12.12;85.10;98971.00;5082132;27;45297;-84
2023/10/28 06:23:44;;;;;;;;;3.00;1.00;;;;;11.75;84.70;98914.72;5080233;28;51238;-81
2023/10/28 06:26:12;;;;;;;;;2.00;1.00;;;;;12.23;85.20;99002.84;5081063;27;46434;-84
2023/10/28 06:28:38;;;;;;;;;2.00;2.00;;;;;12.16;84.88;98988.38;5081040;27;45348;-83
2023/10/28 06:31:04;;;;;;;;;3.00;1.33;;;;;12.24;85.02;98990.34;5079859;27;45235;-84
2023/10/28 06:33:29;;;;;;;;;2.67;1.33;;;;;12.05;85.20;98964.50;5081076;27;45582;-84
2023/10/28 06:35:55;;;;;;;;;3.67;2.00;;;;;12.16;84.97;98993.72;5079638;28;45544;-84
2023/10/28 06:38:21;;;;;;;;;0.00;0.00;;;;;12.28;85.03;99013.97;5096910;27;45433;-87
2023/10/28 06:40:49;;;;;;;;;5.00;2.00;;;;;12.16;85.00;98987.53;5080190;28;45228;-90
2023/10/28 06:43:15;;;;;;;;;2.67;1.00;;;;;12.27;84.91;99006.94;5081663;27;45385;-90
2023/10/28 06:45:41;;;;;;;;;0.00;0.00;;;;;12.17;84.92;98981.25;5080573;28;45983;-84
2023/10/28 06:48:07;;;;;;;;;1.00;1.00;;;;;12.31;85.10;99019.03;5081647;27;45438;-86
2023/10/28 06:50:32;;;;;;;;;5.00;1.00;;;;;12.32;84.77;99018.03;5082184;27;45303;-82
2023/10/28 06:52:59;;;;;;;;;3.00;1.00;;;;;12.07;84.77;98982.03;5097248;27;45709;-84
2023/10/28 06:55:26;;;;;;;;;2.33;1.67;;;;;12.28;84.53;98995.31;5080529;27;45182;-85
2023/10/28 06:57:52;;;;;;;;;3.00;0.00;;;;;12.34;84.14;99024.06;5081100;28;45341;-84
2023/10/28 07:00:18;;;;;;;;;3.67;0.00;;;;;12.26;84.44;99004.41;5080745;27;45302;-84
2023/10/28 07:02:44;;;;;;;;;0.33;0.33;;;;;12.36;84.72;99018.59;5080156;27;45306;-84
2023/10/28 07:05:10;;;;;;;;;1.67;1.67;;;;;12.27;84.46;99001.63;5081351;27;45852;-82
2023/10/28 07:07:36;;;;;;;;;0.00;0.00;;;;;12.01;83.89;98949.78;5085302;27;45463;-81
2023/10/28 07:10:02;;;;;;;;;3.00;2.00;;;;;12.43;84.19;99018.91;5082419;27;45360;-83
2023/10/28 07:12:28;;;;;;;;;2.00;1.00;;;;;12.10;84.28;98976.44;5080030;28;45437;-81
2023/10/28 07:14:54;;;;;;;;;3.00;1.00;;;;;12.44;84.39;99036.59;5079610;28;45510;-83
2023/10/28 07:17:19;;;;;;;;;2.00;1.67;;;;;12.32;83.90;99020.69;5079362;28;45345;-84
2023/10/28 07:19:45;;;;;;;;;3.67;1.00;;;;;12.10;84.17;98972.91;5084870;27;45353;-83
2023/10/28 07:22:10;;;;;;;;;6.67;1.00;;;;;12.35;83.72;99011.59;5084889;27;45223;-84
2023/10/28 07:24:35;;;;;;;;;3.33;1.00;;;;;12.33;83.84;99006.38;5082162;28;57632;-86
2023/10/28 07:27:04;;;;;;;;;1.00;1.00;;;;;12.12;83.71;98986.97;5084155;28;45266;-83
2023/10/28 07:29:30;;;;;;;;;1.00;1.00;;;;;12.51;83.60;99041.25;5084541;27;44841;-87
2023/10/28 07:31:56;;;;;;;;;0.33;0.33;;;;;12.54;83.38;99045.47;5083549;27;45558;-84
2023/10/28 07:34:22;;;;;;;;;2.00;0.33;;;;;12.45;83.45;99036.47;5082212;27;45488;-85
2023/10/28 07:36:47;;;;;;;;;4.33;1.00;;;;;12.59;83.49;99048.56;5080166;28;45746;-82
2023/10/28 07:39:12;;;;;;;;;1.00;1.00;;;;;12.51;83.44;99049.25;5081594;28;52892;-84
2023/10/28 07:41:38;;;;;;;;;4.33;1.00;;;;;12.64;83.40;99073.03;5081456;27;45192;-83
2023/10/28 07:44:03;;;;;;;;;1.00;1.00;;;;;12.64;83.20;99068.53;5078066;28;47201;-84
2023/10/28 07:46:30;;;;;;;;;2.33;1.33;;;;;12.14;83.21;98990.34;5078718;27;45445;-85
2023/10/28 07:48:56;;;;;;;;;5.67;1.00;;;;;12.20;83.32;99010.28;5077229;27;45381;-83
2023/10/28 07:51:22;;;;;;;;;2.00;1.00;;;;;12.64;82.95;99073.03;5079055;27;45334;-83
2023/10/28 07:53:49;;;;;;;;;1.33;0.00;;;;;12.62;82.67;99053.63;5078359;28;45349;-84
2023/10/28 07:56:19;;;;;;;;;2.00;0.00;;;;;12.74;82.93;99078.38;5079423;27;45436;-83
2023/10/28 07:58:45;;;;;;;;;1.00;1.00;;;;;12.18;82.40;98990.91;5079585;28;45211;-83
2023/10/28 08:01:18;;;;;;;;;2.00;1.00;;;;;12.72;82.51;99075.00;5079552;28;45222;-85
2023/10/28 08:03:46;;;;;;;;;3.00;1.00;;;;;12.68;82.63;99074.44;5079159;28;45465;-85
2023/10/28 08:06:12;;;;;;;;;1.00;0.33;;;;;12.78;82.81;99101.13;5080404;27;45327;-83
2023/10/28 08:08:39;;;;;;;;;1.00;1.00;;;;;12.72;82.56;99078.50;5081225;28;45538;-82
2023/10/28 08:11:06;;;;;;;;;1.00;1.00;;;;;12.72;82.53;99072.31;5079115;28;45398;-85
2023/10/28 08:13:32;;;;;;;;;4.00;1.00;;;;;12.63;82.90;99061.50;5078968;27;46188;-82
2023/10/28 08:15:58;;;;;;;;;2.67;1.00;;;;;12.84;82.57;99096.09;5078412;27;45267;-81
2023/10/28 08:18:23;;;;;;;;;1.00;1.00;;;;;12.88;82.79;99099.31;5078275;28;45232;-83
2023/10/28 08:20:48;;;;;;;;;4.00;1.00;;;;;12.82;82.45;99082.03;5076374;28;45599;-83
2023/10/28 08:23:14;;;;;;;;;0.00;0.00;;;;;12.56;82.52;99030.19;5077596;27;45676;-86
2023/10/28 08:25:39;;;;;;;;;1.00;1.00;;;;;12.54;82.02;99024.16;5077798;27;45306;-84
2023/10/28 08:28:04;;;;;;;;;0.67;0.67;;;;;12.98;82.09;99086.84;5077998;27;45161;-85
2023/10/28 08:30:30;;;;;;;;;1.00;1.00;;;;;12.76;82.34;99050.59;5081604;27;45294;-84
2023/10/28 08:32:55;;;;;;;;;1.67;1.33;;;;;12.68;81.77;99051.25;5078867;28;46515;-82
2023/10/28 08:35:20;;;;;;;;;2.00;1.00;;;;;12.74;82.22;99041.84;5085772;27;45161;-83
2023/10/28 08:37:49;;;;;;;;;1.00;1.00;;;;;13.01;82.19;99086.56;5082892;27;45212;-84
2023/10/28 08:40:15;;;;;;;;;1.00;1.00;;;;;12.83;81.96;99048.22;5080609;27;45395;-81
2023/10/28 08:42:42;;;;;;;;;1.67;1.67;;;;;13.06;81.97;99083.50;5079677;28;45765;-82
2023/10/28 08:45:09;;;;;;;;;1.33;1.00;;;;;12.93;81.67;99054.41;5081555;27;45298;-82
2023/10/28 08:47:39;;;;;;;;;4.00;2.00;;;;;13.10;82.25;99060.88;5080909;28;45251;-81
2023/10/28 08:50:09;;;;;;;;;1.00;1.00;;;;;13.03;82.17;99055.28;5082471;27;45393;-82
2023/10/28 08:52:39;;;;;;;;;1.00;1.00;;;;;13.07;82.03;99061.16;5082455;28;45313;-81
2023/10/28 08:55:10;;;;;;;;;2.67;1.00;;;;;13.10;82.12;99052.88;5081991;28;45401;-83
2023/10/28 08:57:44;;;;;;;;;2.33;1.00;;;;;13.23;81.82;99050.81;5083557;27;45340;-83
2023/10/28 09:00:14;;;;;;;;;3.33;1.00;;;;;13.31;81.22;99020.75;5083999;27;45342;-83
2023/10/28 09:02:44;;;;;;;;;3.33;1.00;;;;;13.25;80.83;99014.13;5085144;27;45228;-82
2023/10/28 09:05:17;;;;;;;;;1.00;1.00;;;;;13.27;80.97;99012.16;5082883;27;45277;-85
2023/10/28 09:07:43;;;;;;;;;2.67;1.00;;;;;13.29;80.69;99031.56;5081595;28;45846;-82
2023/10/28 09:10:10;;;;;;;;;2.33;1.00;;;;;13.24;80.63;99004.44;5084255;27;45453;-86
2023/10/28 09:12:39;;;;;;;;;0.00;0.00;;;;;13.41;80.59;99035.78;5092284;27;46253;-88
2023/10/28 09:15:05;;;;;;;;;2.00;0.00;;;;;13.29;80.46;99004.88;5089576;27;45310;-83
2023/10/28 09:17:31;;;;;;;;;1.67;1.00;;;;;13.36;80.15;99011.31;5086984;28;44774;-83
2023/10/28 09:19:56;;;;;;;;;1.00;1.00;;;;;13.34;79.67;98999.09;5084851;27;45463;-83
2023/10/28 09:22:23;;;;;;;;;1.33;0.00;;;;;13.10;79.96;98956.78;5102551;27;47974;-82
2023/10/28 09:24:52;;;;;;;;;2.67;1.00;;;;;13.45;79.69;99010.47;5084390;27;45251;-81
2023/10/28 09:27:19;;;;;;;;;1.00;1.00;;;;;13.61;79.91;99025.06;5091856;28;45247;-83
2023/10/28 09:29:45;;;;;;;;;1.33;1.00;;;;;13.51;79.44;98999.19;5090261;28;45587;-83
2023/10/28 09:32:10;;;;;;;;;1.00;1.00;;;;;13.66;79.20;99017.44;5109829;27;48230;-84
2023/10/28 09:34:39;;;;;;;;;1.00;1.00;;;;;13.62;79.51;99024.06;5093970;27;45392;-83
2023/10/28 09:37:09;;;;;;;;;1.00;1.00;;;;;13.67;79.36;99024.47;5111938;27;45140;-84
2023/10/28 09:39:36;;;;;;;;;0.67;0.00;;;;;13.58;78.85;98999.47;5094104;28;45385;-88
2023/10/28 09:42:02;;;;;;;;;0.33;0.00;;;;;13.67;78.51;99020.00;5091865;28;45289;-84
2023/10/28 09:44:29;;;;;;;;;2.00;1.00;;;;;13.13;78.94;98927.13;5089763;27;45339;-84
2023/10/28 09:47:00;;;;;;;;;1.67;0.00;;;;;13.21;78.97;98938.00;5103879;27;45394;-86
2023/10/28 09:49:30;;;;;;;;;2.00;1.00;;;;;13.59;78.26;98982.47;5091999;27;45330;-83
2023/10/28 09:52:05;;;;;;;;;0.00;0.00;;;;;13.56;78.20;98961.41;5084361;28;46194;-88
2023/10/28 09:54:34;;;;;;;;;2.00;1.00;;;;;13.75;78.23;98981.84;5079933;27;45246;-82
2023/10/28 09:57:00;;;;;;;;;1.67;1.00;;;;;14.02;77.24;98997.09;5080082;27;45438;-82
2023/10/28 09:59:27;;;;;;;;;0.00;0.00;;;;;13.76;76.98;98960.34;5081551;28;45305;-83
2023/10/28 10:02:11;;;;;;;;;1.00;1.00;;;;;14.09;76.54;99001.72;5097190;27;46753;-82
2023/10/28 10:04:49;;;;;;;;;0.00;0.00;;;;;13.87;76.34;98940.63;5084547;27;45315;-85
2023/10/28 10:07:16;;;;;;;;;1.00;1.00;;;;;14.26;76.46;98999.25;5084248;28;44701;-88
2023/10/28 10:09:43;;;;;;;;;3.33;1.33;;;;;14.31;75.92;99002.31;5086762;27;45213;-93
2023/10/28 10:12:10;;;;;;;;;1.67;0.00;;;;;14.21;75.71;98985.50;5089035;27;45425;-84
2023/10/28 10:14:38;;;;;;;;;2.00;0.00;;;;;14.34;75.34;99015.41;5085806;27;45408;-87
2023/10/28 10:17:38;;;;;;;;;1.00;1.00;;;;;14.38;75.66;99003.41;5085436;27;45889;-88
2023/10/28 10:20:06;;;;;;;;;0.67;0.67;;;;;14.64;74.18;99015.13;5061786;27;45341;-86
2023/10/28 10:22:35;;;;;;;;;3.00;1.00;;;;;14.73;73.42;99014.22;5100719;27;47169;-88
2023/10/28 10:25:00;;;;;;;;;0.00;0.00;;;;;14.83;73.30;99034.72;5087192;27;45426;-84
2023/10/28 10:27:45;;;;;;;;;1.33;1.00;;;;;14.69;72.91;99041.41;5080004;27;45326;-82
2023/10/28 10:30:11;;;;;;;;;0.67;0.67;;;;;14.67;72.90;99052.28;5080187;27;45184;-84
2023/10/28 10:32:50;;;;;;;;;1.00;1.00;;;;;14.46;73.35;99043.69;5080586;27;45456;-83
2023/10/28 10:35:33;;;;;;;;;1.00;1.00;;;;;14.49;73.54;99074.63;5080006;27;45359;-84
2023/10/28 10:38:09;;;;;;;;;0.00;0.00;;;;;14.30;73.63;99064.81;5079952;27;45329;-84
2023/10/28 10:40:59;;;;;;;;;1.33;1.00;;;;;14.28;74.52;99088.19;5079920;27;45490;-84
2023/10/28 10:43:30;;;;;;;;;3.33;1.00;;;;;14.18;75.25;99094.38;5080774;27;46062;-83
2023/10/28 10:45:56;;;;;;;;;1.33;1.00;;;;;14.12;74.79;99070.94;5081758;28;45260;-83
2023/10/28 10:48:21;;;;;;;;;1.00;1.00;;;;;14.19;74.82;99087.22;5082250;27;45298;-83
2023/10/28 10:50:47;;;;;;;;;2.00;1.00;;;;;14.08;74.57;99050.84;5081733;28;45378;-83
2023/10/28 10:53:12;;;;;;;;;1.00;1.00;;;;;14.05;74.83;99043.06;5081606;28;46042;-83
2023/10/28 10:55:40;;;;;;;;;1.00;1.00;;;;;13.89;74.85;99002.75;5082547;27;45401;-82
2023/10/28 10:58:05;;;;;;;;;1.00;1.00;;;;;14.22;74.51;99051.34;5098554;27;45243;-83
2023/10/28 11:00:32;;;;;;;;;0.00;0.00;;;;;14.33;74.24;99038.63;5082390;27;45559;-82
2023/10/28 11:02:59;;;;;;;;;2.00;1.00;;;;;14.43;73.78;99039.41;5080469;28;46593;-83
2023/10/28 11:05:30;;;;;;;;;2.00;2.00;;;;;14.54;73.71;99038.41;5080587;28;45432;-82
2023/10/28 11:07:56;;;;;;;;;1.00;1.00;;;;;14.56;73.10;99038.25;5080728;27;45163;-83
2023/10/28 11:10:23;;;;;;;;;1.00;1.00;;;;;14.25;72.56;98986.88;5081319;27;45342;-85
2023/10/28 11:12:50;;;;;;;;;1.33;1.33;;;;;14.54;72.62;99041.09;5080956;27;46147;-83
2023/10/28 11:15:16;;;;;;;;;1.00;1.00;;;;;14.45;72.81;99029.47;5078732;28;45475;-82
2023/10/28 11:17:42;;;;;;;;;1.00;1.00;;;;;14.16;72.32;98988.59;5078576;28;45407;-84
2023/10/28 11:20:10;;;;;;;;;1.00;0.67;;;;;14.52;72.58;99037.72;5085178;28;44806;-87
2023/10/28 11:22:36;;;;;;;;;1.00;1.00;;;;;14.50;72.12;99018.31;5091019;28;46986;-82
2023/10/28 11:25:06;;;;;;;;;0.00;0.00;;;;;14.44;71.83;98992.97;5095716;28;44644;-87
2023/10/28 11:27:32;;;;;;;;;0.00;0.00;;;;;14.70;71.59;99024.38;5110645;27;45461;-82
2023/10/28 11:29:59;;;;;;;;;0.00;0.00;;;;;14.77;70.27;99030.81;5094813;27;45440;-84
2023/10/28 11:32:36;;;;;;;;;1.67;1.67;;;;;14.74;70.05;99005.22;5090288;27;45433;-82